Time;durP1;ratioP1;P1;durP2;ratioP2;P2;SDS_P1;SDS_P2;PMS_P1;PMS_P2;Temp;Humidity;BMP_temperature;BMP_pressure;BME280_temperature;BME280_humidity;BME280_pressure;Samples;Min_cycle;Max_cycle;Signal;HPM_P1;HPM_P2
2021/03/15 00:02:25;;;;;;;7.88;6.25;;;5.00;99.90;;;;;;5100139;28;20232;-89
2021/03/15 00:05:05;;;;;;;8.00;5.65;;;4.70;99.90;;;;;;5100218;28;20232;-88
2021/03/15 00:07:59;;;;;;;7.10;5.55;;;4.60;99.90;;;;;;5100957;28;20291;-88
2021/03/15 00:10:29;;;;;;;9.27;5.22;;;4.60;99.90;;;;;;5100229;28;20205;-87
2021/03/15 00:13:37;;;;;;;6.55;5.15;;;4.50;99.90;;;;;;5104755;28;20346;-88
2021/03/15 00:16:05;;;;;;;8.45;5.80;;;4.40;99.90;;;;;;5093275;28;20209;-88
2021/03/15 00:18:32;;;;;;;10.25;5.60;;;;;;;;;;5098068;28;20208;-88
2021/03/15 00:20:58;;;;;;;6.45;5.28;;;4.50;99.90;;;;;;5098221;28;20206;-88
2021/03/15 00:23:27;;;;;;;8.95;5.82;;;;;;;;;;5097484;28;20259;-88
2021/03/15 00:26:05;;;;;;;5.03;4.53;;;4.40;99.90;;;;;;5098514;28;20654;-88
2021/03/15 00:28:32;;;;;;;6.68;4.82;;;;;;;;;;5110970;28;20754;-88
2021/03/15 00:30:58;;;;;;;7.30;5.97;;;4.40;99.90;;;;;;5114112;28;20613;-88
2021/03/15 00:33:28;;;;;;;7.10;5.03;;;4.40;99.90;;;;;;5116309;28;20210;-87
2021/03/15 00:35:56;;;;;;;7.93;4.95;;;4.10;99.90;;;;;;5118611;28;20189;-87
2021/03/15 00:38:23;;;;;;;7.70;5.53;;;;;;;;;;5117319;28;20245;-86
2021/03/15 00:40:50;;;;;;;9.65;5.55;;;4.40;99.90;;;;;;5113394;28;20213;-87
2021/03/15 00:43:16;;;;;;;7.75;5.63;;;4.40;99.90;;;;;;5112487;28;20225;-87
2021/03/15 00:45:43;;;;;;;8.90;5.97;;;;;;;;;;5113446;28;20216;-87
2021/03/15 00:48:14;;;;;;;7.15;5.75;;;4.40;99.90;;;;;;5115101;28;20201;-88
2021/03/15 00:50:42;;;;;;;9.55;5.70;;;4.40;99.90;;;;;;5114970;28;20265;-87
2021/03/15 00:53:09;;;;;;;7.78;5.65;;;3.90;99.90;;;;;;5114691;28;20212;-88
2021/03/15 00:55:36;;;;;;;9.13;5.53;;;4.30;99.90;;;;;;5116053;28;20288;-87
2021/03/15 00:58:05;;;;;;;9.13;6.65;;;6.20;99.90;;;;;;5115616;28;20201;-87
2021/03/15 01:00:36;;;;;;;9.25;4.93;;;4.40;99.90;;;;;;5117140;28;20201;-91
2021/03/15 01:03:04;;;;;;;9.40;5.57;;;4.40;99.90;;;;;;5119001;28;20213;-90
2021/03/15 01:05:36;;;;;;;10.32;6.88;;;4.30;99.90;;;;;;5118444;28;20208;-92
2021/03/15 01:08:05;;;;;;;8.35;4.72;;;4.30;99.90;;;;;;5118975;28;20225;-90
2021/03/15 01:10:34;;;;;;;9.18;5.30;;;4.50;99.90;;;;;;5118501;28;20178;-88
2021/03/15 01:13:03;;;;;;;6.72;5.60;;;4.40;99.90;;;;;;5110080;28;20225;-87
2021/03/15 01:15:30;;;;;;;10.18;5.50;;;;;;;;;;5110582;28;20202;-87
2021/03/15 01:17:57;;;;;;;7.95;6.05;;;;;;;;;;5108285;28;20198;-88
2021/03/15 01:20:23;;;;;;;8.18;5.70;;;;;;;;;;5106045;28;20194;-88
2021/03/15 01:22:51;;;;;;;6.43;4.90;;;;;;;;;;5099203;28;20242;-88
2021/03/15 01:25:21;;;;;;;7.80;5.95;;;4.60;99.90;;;;;;5099941;28;20240;-88
2021/03/15 01:27:47;;;;;;;9.43;5.88;;;;;;;;;;5099280;28;20289;-88
2021/03/15 01:30:17;;;;;;;6.85;5.50;;;4.40;99.90;;;;;;5097714;28;20201;-88
2021/03/15 01:32:44;;;;;;;7.70;5.32;;;;;;;;;;5096300;28;20253;-88
2021/03/15 01:35:11;;;;;;;9.60;6.28;;;4.30;99.90;;;;;;5096358;28;20289;-87
2021/03/15 01:37:40;;;;;;;8.38;5.40;;;;;;;;;;5096178;28;20252;-87
2021/03/15 01:40:10;;;;;;;7.72;5.05;;;4.40;99.90;;;;;;5096840;28;20335;-87
2021/03/15 01:42:38;;;;;;;9.68;5.28;;;4.40;99.90;;;;;;5096109;28;20278;-88
2021/03/15 01:45:09;;;;;;;7.35;4.82;;;4.30;99.90;;;;;;5095946;28;20218;-88
2021/03/15 01:47:37;;;;;;;7.43;5.03;;;4.40;99.90;;;;;;5096250;28;20231;-88
2021/03/15 01:50:05;;;;;;;10.48;5.20;;;4.30;99.90;;;;;;5096553;28;20228;-88
2021/03/15 01:52:34;;;;;;;10.50;5.43;;;4.50;99.90;;;;;;5096883;28;20298;-87
2021/03/15 01:55:01;;;;;;;10.50;4.72;;;4.40;99.90;;;;;;5108344;28;20205;-88
2021/03/15 01:57:28;;;;;;;6.68;4.18;;;4.30;99.90;;;;;;5114655;28;20205;-87
2021/03/15 01:59:55;;;;;;;8.13;5.25;;;4.30;99.90;;;;;;5110616;28;20197;-88
2021/03/15 02:02:22;;;;;;;8.30;4.57;;;;;;;;;;5110258;28;20234;-88
2021/03/15 02:04:50;;;;;;;8.75;5.45;;;;;;;;;;5114883;28;20214;-87
2021/03/15 02:07:17;;;;;;;9.70;5.85;;;;;;;;;;5113173;28;20193;-87
2021/03/15 02:09:43;;;;;;;9.15;5.35;;;4.30;99.90;;;;;;5102327;28;20189;-88
2021/03/15 02:12:28;;;;;;;7.93;4.43;;;5.40;99.90;;;;;;5109793;28;20225;-88
2021/03/15 02:15:09;;;;;;;6.57;4.70;;;4.40;99.90;;;;;;5116431;28;20224;-87
2021/03/15 02:17:43;;;;;;;6.32;4.85;;;4.40;99.90;;;;;;5100017;28;20698;-88
2021/03/15 02:20:31;;;;;;;9.82;5.20;;;4.60;99.90;;;;;;5100953;28;20220;-88
2021/03/15 02:23:02;;;;;;;9.98;5.28;;;4.40;99.90;;;;;;5111491;22;20253;-78
2021/03/15 02:26:10;;;;;;;6.90;5.13;;;4.30;99.90;;;;;;5099982;28;20213;-78
2021/03/15 02:29:18;;;;;;;6.97;5.07;;;4.40;99.90;;;;;;5102071;28;20725;-78
2021/03/15 02:32:06;;;;;;;8.20;5.53;;;4.30;99.90;;;;;;5039865;28;20184;-77
2021/03/15 02:34:59;;;;;;;9.65;4.88;;;4.30;99.90;;;;;;5080819;28;20248;-80
2021/03/15 02:37:30;;;;;;;9.93;5.63;;;4.30;99.90;;;;;;5081373;28;20183;-78
2021/03/15 02:40:03;;;;;;;11.25;5.57;;;4.30;99.90;;;;;;5080380;28;20273;-78
2021/03/15 02:42:30;;;;;;;7.45;5.43;;;4.50;99.90;;;;;;5081449;28;20218;-78
2021/03/15 02:44:57;;;;;;;9.93;5.97;;;4.40;99.90;;;;;;5080961;28;20222;-78
2021/03/15 02:47:27;;;;;;;5.95;5.25;;;4.40;99.90;;;;;;5083305;28;20206;-78
2021/03/15 02:49:59;;;;;;;7.53;5.65;;;4.40;99.90;;;;;;5099281;28;20201;-78
2021/03/15 02:52:27;;;;;;;6.75;4.85;;;4.30;99.90;;;;;;5099003;28;20222;-79
2021/03/15 02:54:55;;;;;;;12.15;5.40;;;4.30;99.90;;;;;;5098233;28;20198;-79
2021/03/15 02:57:22;;;;;;;9.32;5.55;;;4.30;99.90;;;;;;5093752;28;20210;-79
2021/03/15 02:59:50;;;;;;;7.63;6.00;;;4.30;99.90;;;;;;5086387;28;20251;-78
2021/03/15 03:02:17;;;;;;;8.15;5.60;;;4.30;99.90;;;;;;5084587;28;20222;-79
2021/03/15 03:04:45;;;;;;;9.20;5.47;;;4.30;99.90;;;;;;5082799;28;20631;-78
2021/03/15 03:07:13;;;;;;;9.70;5.70;;;4.30;99.90;;;;;;5081343;28;20202;-78
2021/03/15 03:09:40;;;;;;;12.00;5.90;;;4.30;99.90;;;;;;5080259;28;20221;-79
2021/03/15 03:12:09;;;;;;;8.13;5.75;;;4.20;99.90;;;;;;5080103;28;20202;-80
2021/03/15 03:14:35;;;;;;;7.18;5.30;;;4.20;99.90;;;;;;5080941;28;20206;-80
2021/03/15 03:17:03;;;;;;;12.65;6.80;;;4.20;99.90;;;;;;5080050;28;20210;-80
2021/03/15 03:19:31;;;;;;;9.70;6.40;;;4.30;99.90;;;;;;5080228;28;20202;-78
2021/03/15 03:21:59;;;;;;;9.38;6.13;;;4.60;99.90;;;;;;5096678;28;20206;-77
2021/03/15 03:24:28;;;;;;;9.20;6.85;;;4.30;99.90;;;;;;5094011;28;20233;-78
2021/03/15 03:26:55;;;;;;;9.10;5.93;;;4.20;99.90;;;;;;5078672;28;20263;-80
2021/03/15 03:29:22;;;;;;;9.45;6.40;;;4.30;99.90;;;;;;5078939;28;20211;-79
2021/03/15 03:31:50;;;;;;;10.73;6.25;;;4.60;99.90;;;;;;5081218;28;20202;-78
2021/03/15 03:34:16;;;;;;;7.97;5.82;;;4.60;99.90;;;;;;5093904;28;20305;-77
2021/03/15 03:36:43;;;;;;;13.25;6.93;;;4.50;99.90;;;;;;5093689;28;20220;-77
2021/03/15 03:39:10;;;;;;;12.07;6.43;;;4.40;99.90;;;;;;5095187;28;20202;-77
2021/03/15 03:41:39;;;;;;;9.68;6.63;;;4.30;99.90;;;;;;5094331;28;20217;-77
2021/03/15 03:44:06;;;;;;;12.45;6.80;;;4.20;99.90;;;;;;5094693;28;20226;-78
2021/03/15 03:46:32;;;;;;;8.73;6.10;;;4.30;99.90;;;;;;5096479;28;20210;-78
2021/03/15 03:48:59;;;;;;;13.63;6.65;;;4.20;99.90;;;;;;5095568;28;20430;-78
2021/03/15 03:51:29;;;;;;;8.70;6.18;;;4.20;99.90;;;;;;5093834;28;20210;-77
2021/03/15 03:54:02;;;;;;;12.05;7.03;;;4.20;99.90;;;;;;5093283;28;20237;-78
2021/03/15 03:56:35;;;;;;;11.18;7.05;;;4.10;99.90;;;;;;5087131;28;20793;-79
2021/03/15 03:59:02;;;;;;;12.15;6.50;;;4.10;99.90;;;;;;5079718;28;20194;-79
2021/03/15 04:01:32;;;;;;;10.07;6.68;;;4.00;99.90;;;;;;5079353;28;20214;-79
2021/03/15 04:04:01;;;;;;;9.18;6.75;;;4.00;99.90;;;;;;5078942;28;20222;-79
2021/03/15 04:06:29;;;;;;;10.15;6.35;;;3.90;99.90;;;;;;5078958;28;20574;-80
2021/03/15 04:09:00;;;;;;;11.45;6.50;;;3.90;99.90;;;;;;5078180;28;20556;-79
2021/03/15 04:11:30;;;;;;;15.60;8.50;;;3.80;99.90;;;;;;5079501;28;20187;-79
2021/03/15 04:13:57;;;;;;;14.70;7.65;;;3.90;99.90;;;;;;5079722;28;20253;-80
2021/03/15 04:16:28;;;;;;;10.75;7.13;;;3.80;99.90;;;;;;5083701;28;20209;-80
2021/03/15 04:18:57;;;;;;;11.27;7.03;;;3.80;99.90;;;;;;5091666;28;20190;-79
2021/03/15 04:21:26;;;;;;;8.50;6.63;;;3.80;99.90;;;;;;5086302;28;20230;-80
2021/03/15 04:23:53;;;;;;;7.93;6.50;;;3.70;99.90;;;;;;5085856;28;20495;-80
2021/03/15 04:26:20;;;;;;;12.20;8.07;;;3.70;99.90;;;;;;5087133;28;20226;-80
2021/03/15 04:28:48;;;;;;;10.30;7.30;;;3.80;99.90;;;;;;5088380;28;20531;-80
2021/03/15 04:31:14;;;;;;;10.60;7.15;;;3.70;99.90;;;;;;5090238;28;20471;-79
2021/03/15 04:33:42;;;;;;;9.98;6.43;;;3.70;99.90;;;;;;5094190;28;20222;-78
2021/03/15 04:36:10;;;;;;;13.65;8.25;;;3.60;99.90;;;;;;5095222;28;20225;-79
2021/03/15 04:38:37;;;;;;;8.18;7.32;;;3.60;99.90;;;;;;5096262;28;20190;-78
2021/03/15 04:41:04;;;;;;;8.52;7.15;;;3.60;99.90;;;;;;5082181;28;20202;-79
2021/03/15 04:43:31;;;;;;;13.40;6.80;;;3.70;99.90;;;;;;5078637;28;20268;-79
2021/03/15 04:45:58;;;;;;;9.93;6.63;;;3.70;99.90;;;;;;5079314;28;20329;-80
2021/03/15 04:48:29;;;;;;;9.40;6.43;;;3.80;99.90;;;;;;5079336;28;20252;-80
2021/03/15 04:50:59;;;;;;;15.68;6.75;;;3.80;99.90;;;;;;5078492;28;20187;-79
2021/03/15 04:53:26;;;;;;;12.77;7.35;;;3.80;99.90;;;;;;5079144;28;20222;-81
2021/03/15 04:55:54;;;;;;;19.50;7.07;;;3.80;99.90;;;;;;5079145;28;20222;-80
2021/03/15 04:58:21;;;;;;;12.85;7.45;;;3.70;99.90;;;;;;5078844;28;20210;-79
2021/03/15 05:00:49;;;;;;;10.82;6.57;;;3.50;99.90;;;;;;5078718;28;20213;-81
2021/03/15 05:03:16;;;;;;;8.85;6.78;;;3.80;99.90;;;;;;5078879;28;20301;-80
2021/03/15 05:05:45;;;;;;;10.73;5.90;;;3.80;99.90;;;;;;5078298;28;20222;-79
2021/03/15 05:08:17;;;;;;;11.15;6.53;;;3.80;99.90;;;;;;5077956;28;20217;-79
2021/03/15 05:10:45;;;;;;;11.43;6.72;;;3.80;99.90;;;;;;5079015;28;20626;-80
2021/03/15 05:13:12;;;;;;;10.30;6.50;;;3.90;99.90;;;;;;5076649;28;20452;-80
2021/03/15 05:15:39;;;;;;;10.18;6.80;;;3.80;99.90;;;;;;5078545;28;20437;-80
2021/03/15 05:18:07;;;;;;;10.63;7.15;;;3.90;99.90;;;;;;5078711;28;20256;-80
2021/03/15 05:20:49;;;;;;;9.68;6.90;;;3.80;99.90;;;;;;5078609;28;20714;-81
2021/03/15 05:23:16;;;;;;;10.93;6.85;;;4.00;99.90;;;;;;5078134;28;20700;-78
2021/03/15 05:25:44;;;;;;;9.90;7.47;;;3.90;99.90;;;;;;5078376;28;20218;-80
2021/03/15 05:28:10;;;;;;;10.68;6.25;;;4.00;99.90;;;;;;5092062;28;20224;-79
2021/03/15 05:30:38;;;;;;;12.07;7.60;;;4.00;99.90;;;;;;5079214;28;20213;-80
2021/03/15 05:33:09;;;;;;;10.40;6.50;;;4.00;99.90;;;;;;5083574;28;20287;-77
2021/03/15 05:35:37;;;;;;;12.30;6.47;;;4.00;99.90;;;;;;5090210;28;20182;-79
2021/03/15 05:38:03;;;;;;;14.65;7.93;;;4.00;99.90;;;;;;5084785;28;20617;-80
2021/03/15 05:40:32;;;;;;;14.38;7.93;;;3.90;99.90;;;;;;5079277;28;20259;-80
2021/03/15 05:43:09;;;;;;;11.57;9.40;;;3.80;99.90;;;;;;5081744;28;20248;-80
2021/03/15 05:46:15;;;;;;;20.85;7.57;;;3.80;99.90;;;;;;5084566;28;20206;-80
2021/03/15 05:49:06;;;;;;;9.18;7.05;;;3.70;99.90;;;;;;5079423;28;20190;-79
2021/03/15 05:52:05;;;;;;;14.77;7.50;;;3.80;99.90;;;;;;5078763;28;20187;-79
2021/03/15 05:55:10;;;;;;;14.52;8.60;;;3.80;99.90;;;;;;5078530;28;20289;-79
2021/03/15 05:58:01;;;;;;;10.00;7.60;;;3.80;99.90;;;;;;5079437;28;20198;-79
2021/03/15 06:00:36;;;;;;;10.15;7.18;;;3.80;99.90;;;;;;5082753;28;20217;-79
2021/03/15 06:03:16;;;;;;;13.35;8.05;;;3.80;99.90;;;;;;5082635;28;20573;-79
2021/03/15 06:05:45;;;;;;;11.15;7.25;;;3.80;99.90;;;;;;5082384;28;20210;-79
2021/03/15 06:08:17;;;;;;;16.48;7.93;;;3.90;99.90;;;;;;5089027;28;20202;-80
2021/03/15 06:11:02;;;;;;;7.93;5.85;;;3.90;99.90;;;;;;5087056;28;20191;-80
2021/03/15 06:13:58;;;;;;;11.57;7.40;;;4.40;99.90;;;;;;5088425;28;20305;-82
2021/03/15 06:16:25;;;;;;;12.07;6.97;;;4.20;99.90;;;;;;5023910;28;20207;-81
2021/03/15 06:18:56;;;;;;;10.65;7.60;;;4.20;99.90;;;;;;5080601;28;20232;-78
2021/03/15 06:21:23;;;;;;;8.10;7.30;;;4.20;99.90;;;;;;5095059;28;20194;-80
2021/03/15 06:23:49;;;;;;;13.00;7.00;;;4.40;99.90;;;;;;5093949;28;20234;-81
2021/03/15 06:26:16;;;;;;;11.95;7.15;;;4.20;99.90;;;;;;5083965;28;20226;-80
2021/03/15 06:28:46;;;;;;;10.05;6.90;;;4.60;99.90;;;;;;5087318;28;20198;-79
2021/03/15 06:31:15;;;;;;;7.82;6.10;;;4.60;99.90;;;;;;5089671;28;20193;-80
2021/03/15 06:33:45;;;;;;;14.23;9.52;;;4.30;99.90;;;;;;5097046;28;20240;-80
2021/03/15 06:36:13;;;;;;;11.00;7.43;;;4.40;99.90;;;;;;5097391;28;20210;-79
2021/03/15 06:38:43;;;;;;;11.32;7.57;;;3.70;99.90;;;;;;5089760;28;20206;-80
2021/03/15 06:41:12;;;;;;;15.68;7.38;;;4.40;99.90;;;;;;5080030;28;20256;-79
2021/03/15 06:43:40;;;;;;;12.25;7.22;;;4.50;99.90;;;;;;5080377;28;20222;-79
2021/03/15 06:46:15;;;;;;;12.82;7.97;;;4.80;99.90;;;;;;5080502;28;20219;-80
2021/03/15 06:48:41;;;;;;;8.90;7.45;;;4.50;99.90;;;;;;5081514;28;20205;-80
2021/03/15 06:51:08;;;;;;;15.52;7.40;;;4.50;99.90;;;;;;5080833;28;20217;-80
2021/03/15 06:53:41;;;;;;;8.90;7.28;;;4.80;99.90;;;;;;5080808;28;20214;-80
2021/03/15 06:56:14;;;;;;;11.80;6.35;;;4.60;99.90;;;;;;5080950;28;20182;-79
2021/03/15 06:58:48;;;;;;;10.75;5.90;;;4.60;99.90;;;;;;5080420;28;20187;-80
2021/03/15 07:01:17;;;;;;;8.27;5.72;;;4.60;99.90;;;;;;5079967;28;20233;-80
2021/03/15 07:03:44;;;;;;;9.15;6.70;;;4.50;99.90;;;;;;5080810;28;20223;-80
2021/03/15 07:06:12;;;;;;;13.48;7.47;;;4.40;99.90;;;;;;5080113;28;20636;-80
2021/03/15 07:08:38;;;;;;;13.40;7.10;;;4.40;99.90;;;;;;5080475;28;20607;-81
2021/03/15 07:11:04;;;;;;;10.48;7.32;;;4.50;99.90;;;;;;5079529;28;20692;-80
2021/03/15 07:13:37;;;;;;;12.23;7.53;;;4.50;99.90;;;;;;5079668;28;20226;-80
2021/03/15 07:16:03;;;;;;;13.15;7.65;;;4.60;99.90;;;;;;5080056;28;20202;-80
2021/03/15 07:18:34;;;;;;;11.45;6.88;;;4.60;99.90;;;;;;5079323;28;20252;-80
2021/03/15 07:21:02;;;;;;;12.73;7.50;;;4.70;99.90;;;;;;5080523;28;20190;-80
2021/03/15 07:23:39;;;;;;;12.13;6.78;;;4.70;99.90;;;;;;5078929;28;20230;-80
2021/03/15 07:26:12;;;;;;;8.27;6.22;;;4.90;99.90;;;;;;5080201;28;20595;-80
2021/03/15 07:28:39;;;;;;;9.15;7.07;;;4.80;99.90;;;;;;5081025;28;20228;-80
2021/03/15 07:31:24;;;;;;;8.00;6.10;;;4.80;99.90;;;;;;5080651;28;20198;-80
2021/03/15 07:34:16;;;;;;;10.90;6.30;;;4.80;99.90;;;;;;5080094;28;20230;-80
2021/03/15 07:36:51;;;;;;;12.05;7.18;;;4.70;99.90;;;;;;5080737;28;20191;-80
2021/03/15 07:39:18;;;;;;;16.17;7.95;;;4.80;99.90;;;;;;5081175;28;20194;-80
2021/03/15 07:41:46;;;;;;;12.05;7.95;;;5.00;99.90;;;;;;5079944;28;20198;-80
2021/03/15 07:44:20;;;;;;;9.27;6.82;;;5.00;99.90;;;;;;5079056;28;20316;-79
2021/03/15 07:46:47;;;;;;;10.75;6.63;;;5.20;99.90;;;;;;5079570;28;20214;-79
2021/03/15 07:49:26;;;;;;;11.15;7.00;;;5.20;99.90;;;;;;5080210;28;20207;-79
2021/03/15 07:51:53;;;;;;;13.55;8.27;;;5.00;99.90;;;;;;5079683;28;20202;-80
2021/03/15 07:54:24;;;;;;;13.38;7.63;;;5.20;99.90;;;;;;5078906;28;20209;-79
2021/03/15 07:57:12;;;;;;;8.82;6.85;;;5.00;99.90;;;;;;5078560;28;20263;-78
2021/03/15 07:59:40;;;;;;;13.68;8.13;;;5.00;99.90;;;;;;5082602;28;20214;-80
2021/03/15 08:02:07;;;;;;;8.27;6.13;;;5.00;99.90;;;;;;5088082;28;20209;-80
2021/03/15 08:04:35;;;;;;;6.57;5.68;;;5.20;99.90;;;;;;5095078;28;20213;-79
2021/03/15 08:07:02;;;;;;;12.38;6.70;;;5.20;99.90;;;;;;5080079;28;20210;-79
2021/03/15 08:09:28;;;;;;;12.77;7.00;;;5.20;99.90;;;;;;5078468;28;20202;-78
2021/03/15 08:11:55;;;;;;;10.57;6.93;;;5.40;99.90;;;;;;5078198;28;20198;-79
2021/03/15 08:14:23;;;;;;;10.30;6.65;;;5.20;99.90;;;;;;5078147;28;20576;-79
2021/03/15 08:16:51;;;;;;;9.20;7.32;;;5.40;99.90;;;;;;5078122;28;20207;-79
2021/03/15 08:19:19;;;;;;;7.55;6.55;;;5.60;99.90;;;;;;5079227;28;20241;-79
2021/03/15 08:21:47;;;;;;;15.35;7.57;;;5.70;99.90;;;;;;5095963;28;20213;-78
2021/03/15 08:24:19;;;;;;;10.38;7.30;;;5.90;99.90;;;;;;5156988;22;20233;-88
2021/03/15 08:26:50;;;;;;;7.57;6.72;;;6.00;99.90;;;;;;5118368;28;20201;-87
2021/03/15 08:29:18;;;;;;;13.60;7.32;;;6.10;99.90;;;;;;5118272;28;20202;-88
2021/03/15 08:31:47;;;;;;;13.82;7.68;;;6.30;99.90;;;;;;5118350;28;20182;-88
2021/03/15 08:34:16;;;;;;;10.43;7.82;;;;;;;;;;5118163;28;20241;-88
2021/03/15 08:36:48;;;;;;;9.90;7.10;;;6.50;99.90;;;;;;5110666;28;20197;-89
2021/03/15 08:39:37;;;;;;;9.18;8.10;;;6.60;99.90;;;;;;5101423;28;20201;-89
2021/03/15 08:42:25;;;;;;;9.82;6.90;;;6.60;99.90;;;;;;5101292;28;20209;-88
2021/03/15 08:45:07;;;;;;;9.48;7.28;;;6.20;99.90;;;;;;5101439;28;20279;-87
2021/03/15 08:47:51;;;;;;;11.95;7.07;;;6.20;99.90;;;;;;5100448;28;20648;-87
2021/03/15 08:50:41;;;;;;;19.08;8.23;;;6.50;99.90;;;;;;5103731;28;20208;-87
2021/03/15 08:53:09;;;;;;;10.13;7.55;;;;;;;;;;5100376;28;20230;-88
2021/03/15 08:55:47;;;;;;;11.32;7.60;;;6.40;99.90;;;;;;5101249;28;20217;-87
2021/03/15 08:58:40;;;;;;;9.15;7.20;;;6.50;99.90;;;;;;5100752;28;20209;-88
2021/03/15 09:01:08;;;;;;;9.15;6.53;;;6.40;99.90;;;;;;5100024;28;20244;-88
2021/03/15 09:03:51;;;;;;;9.45;6.85;;;6.90;99.90;;;;;;5099850;28;20226;-87
2021/03/15 09:06:47;;;;;;;11.30;7.40;;;6.70;99.90;;;;;;5099199;28;20208;-88
2021/03/15 09:09:24;;;;;;;10.43;7.10;;;6.80;99.90;;;;;;5105912;28;20212;-87
2021/03/15 09:11:53;;;;;;;11.10;7.65;;;6.80;99.90;;;;;;5114521;28;20213;-87
2021/03/15 09:14:53;;;;;;;10.27;7.57;;;6.80;99.90;;;;;;5111985;28;20234;-88
2021/03/15 09:17:33;;;;;;;9.95;7.50;;;6.50;99.90;;;;;;5088318;28;20201;-88
2021/03/15 09:20:24;;;;;;;9.55;7.07;;;7.00;99.90;;;;;;5105118;28;20248;-87
2021/03/15 09:23:13;;;;;;;8.43;6.55;;;6.40;99.90;;;;;;5077368;28;20311;-88
2021/03/15 09:25:41;;;;;;;12.88;5.70;;;5.30;99.90;;;;;;5102664;28;20280;-87
2021/03/15 09:28:09;;;;;;;6.60;5.95;;;6.20;99.90;;;;;;5102986;28;20219;-88
2021/03/15 09:30:38;;;;;;;9.02;5.60;;;;;;;;;;5109453;28;20265;-88
2021/03/15 09:33:06;;;;;;;12.95;7.10;;;7.80;99.90;;;;;;5104505;28;20218;-88
2021/03/15 09:35:40;;;;;;;6.95;5.70;;;6.40;99.90;;;;;;5106211;28;20197;-88
2021/03/15 09:38:15;;;;;;;10.85;8.10;;;6.00;99.90;;;;;;5108642;28;20198;-88
2021/03/15 09:40:44;;;;;;;7.38;5.60;;;6.00;99.90;;;;;;5106001;28;20205;-89
2021/03/15 09:43:20;;;;;;;6.78;5.80;;;6.70;99.90;;;;;;5105437;28;20284;-88
2021/03/15 09:45:55;;;;;;;6.45;5.70;;;7.00;99.90;;;;;;5104488;28;20204;-88
2021/03/15 09:48:30;;;;;;;6.60;5.40;;;7.10;99.90;;;;;;5105894;28;20246;-88
2021/03/15 09:51:04;;;;;;;7.72;6.15;;;7.00;99.90;;;;;;5105875;28;20204;-88
2021/03/15 09:53:31;;;;;;;9.35;5.38;;;;;;;;;;5105608;28;20246;-88
2021/03/15 09:56:04;;;;;;;8.05;5.50;;;7.00;99.90;;;;;;5105796;28;20235;-87
2021/03/15 09:58:35;;;;;;;5.78;5.28;;;6.40;99.90;;;;;;5113566;28;20233;-88
2021/03/15 10:01:09;;;;;;;11.13;5.63;;;6.50;99.90;;;;;;5121549;28;20197;-89
2021/03/15 10:03:38;;;;;;;6.15;4.95;;;;;;;;;;5121644;28;20262;-88
2021/03/15 10:06:06;;;;;;;5.57;4.88;;;5.60;99.90;;;;;;5121225;28;20239;-89
2021/03/15 10:08:32;;;;;;;9.98;6.50;;;6.40;99.90;;;;;;5121390;28;20217;-87
2021/03/15 10:11:01;;;;;;;11.55;5.40;;;6.40;99.90;;;;;;5113565;28;20206;-87
2021/03/15 10:13:27;;;;;;;5.13;4.55;;;;;;;;;;5107848;28;20218;-89
2021/03/15 10:16:05;;;;;;;6.32;4.63;;;7.50;99.90;;;;;;5107736;28;20198;-88
2021/03/15 10:18:31;;;;;;;8.38;5.03;;;7.40;99.90;;;;;;5107217;28;20182;-88
2021/03/15 10:21:00;;;;;;;6.00;4.20;;;7.30;99.90;;;;;;5115206;28;20209;-88
2021/03/15 10:23:32;;;;;;;5.22;4.53;;;8.90;99.90;;;;;;5114933;28;20225;-87
2021/03/15 10:25:59;;;;;;;5.57;4.20;;;7.00;99.90;;;;;;5113482;28;20245;-88
2021/03/15 10:28:26;;;;;;;6.55;4.40;;;;;;;;;;5116475;28;20201;-88
2021/03/15 10:30:53;;;;;;;7.57;5.10;;;;;;;;;;5112826;28;20208;-87
2021/03/15 10:33:24;;;;;;;5.60;3.45;;;7.50;99.90;;;;;;5106930;28;20249;-87
2021/03/15 10:35:52;;;;;;;4.10;3.78;;;7.60;99.90;;;;;;5107338;28;20566;-88
2021/03/15 10:38:20;;;;;;;5.47;3.70;;;;;;;;;;5106005;28;20233;-88
2021/03/15 10:40:49;;;;;;;5.25;4.20;;;8.10;99.90;;;;;;5107637;28;20263;-88
2021/03/15 10:43:17;;;;;;;2.80;2.60;;;8.10;99.90;;;;;;5105319;28;20221;-88
2021/03/15 10:45:44;;;;;;;3.53;3.22;;;8.10;99.90;;;;;;5103556;28;20217;-88
2021/03/15 10:48:11;;;;;;;3.63;3.33;;;8.60;99.90;;;;;;5105939;28;20208;-88
2021/03/15 10:50:42;;;;;;;3.40;2.72;;;7.90;99.90;;;;;;5103603;28;20201;-88
2021/03/15 10:53:32;;;;;;;6.40;3.28;;;8.00;99.90;;;;;;5103612;28;20225;-89
2021/03/15 10:56:00;;;;;;;3.60;2.92;;;;;;;;;;5104112;28;20204;-89
2021/03/15 10:58:38;;;;;;;5.97;2.65;;;8.00;99.90;;;;;;5105206;28;20269;-88
2021/03/15 11:01:06;;;;;;;4.45;4.10;;;;;;;;;;5104992;28;20245;-88
2021/03/15 11:03:48;;;;;;;6.82;3.17;;;7.70;99.90;;;;;;5105148;28;20593;-88
2021/03/15 11:06:19;;;;;;;4.03;3.07;;;7.70;99.90;;;;;;5105335;28;20636;-88
2021/03/15 11:08:57;;;;;;;3.42;3.05;;;7.90;99.90;;;;;;5103176;28;20530;-88
2021/03/15 11:11:28;;;;;;;8.25;3.03;;;7.90;99.90;;;;;;5105124;28;20185;-88
2021/03/15 11:13:57;;;;;;;5.00;3.47;;;8.00;99.90;;;;;;5112927;28;20233;-87
2021/03/15 11:16:27;;;;;;;3.15;2.95;;;7.90;99.90;;;;;;5110091;28;20232;-88
2021/03/15 11:19:08;;;;;;;6.70;2.55;;;7.90;99.90;;;;;;5104148;28;20198;-88
2021/03/15 11:21:38;;;;;;;7.28;3.65;;;8.10;99.90;;;;;;5103040;28;20217;-88
2021/03/15 11:24:05;;;;;;;2.65;2.45;;;7.80;99.90;;;;;;5104461;28;20230;-88
2021/03/15 11:26:44;;;;;;;3.55;2.60;;;7.80;99.90;;;;;;5102885;28;20202;-88
2021/03/15 11:29:12;;;;;;;7.05;2.92;;;;;;;;;;5108157;28;20185;-88
2021/03/15 11:31:48;;;;;;;2.00;1.90;;;8.20;99.90;;;;;;5112171;28;20228;-87
2021/03/15 11:34:20;;;;;;;2.50;2.30;;;8.30;99.90;;;;;;5105264;28;20251;-88
2021/03/15 11:36:49;;;;;;;2.10;1.90;;;7.30;99.90;;;;;;5104225;28;20202;-88
2021/03/15 11:39:17;;;;;;;2.63;2.30;;;8.50;99.90;;;;;;5104161;28;20202;-88
2021/03/15 11:41:45;;;;;;;2.15;2.05;;;9.10;99.90;;;;;;5102375;28;20217;-86
2021/03/15 11:44:12;;;;;;;2.80;2.27;;;;;;;;;;5101169;28;20237;-87
2021/03/15 11:46:39;;;;;;;3.23;2.20;;;;;;;;;;5102252;28;20827;-87
2021/03/15 11:49:07;;;;;;;2.30;2.20;;;;;;;;;;5113757;28;20451;-87
2021/03/15 11:51:33;;;;;;;2.37;2.27;;;;;;;;;;5104343;28;20478;-87
2021/03/15 11:54:00;;;;;;;3.80;2.00;;;8.80;99.90;;;;;;5102640;28;20489;-88
2021/03/15 11:56:27;;;;;;;2.10;2.00;;;;;;;;;;5102510;28;20531;-87
2021/03/15 11:58:54;;;;;;;8.60;4.70;;;;;;;;;;5106776;28;20447;-88
2021/03/15 12:01:21;;;;;;;3.30;2.70;;;;;;;;;;5102547;28;20435;-88
2021/03/15 12:03:47;;;;;;;3.10;2.80;;;;;;;;;;5106188;28;20455;-88
2021/03/15 12:06:14;;;;;;;2.63;2.43;;;;;;;;;;5109740;28;20452;-87
2021/03/15 12:08:41;;;;;;;2.88;2.67;;;;;;;;;;5110124;28;20450;-87
2021/03/15 12:11:08;;;;;;;2.30;2.00;;;8.50;99.90;;;;;;5109037;28;20284;-87
2021/03/15 12:13:35;;;;;;;2.60;2.40;;;;;;;;;;5111432;28;20459;-87
2021/03/15 12:16:02;;;;;;;3.80;2.87;;;;;;;;;;5104980;28;20501;-87
2021/03/15 12:18:28;;;;;;;6.53;3.53;;;;;;;;;;5101625;28;20455;-88
2021/03/15 12:20:54;;;;;;;2.57;2.37;;;8.70;99.90;;;;;;5101637;28;20469;-88
2021/03/15 12:23:21;;;;;;;3.07;2.77;;;9.10;99.90;;;;;;5101755;28;20471;-88
2021/03/15 12:25:47;;;;;;;3.10;2.67;;;9.30;99.90;;;;;;5103940;28;20444;-88
2021/03/15 12:28:16;;;;;;;4.47;2.50;;;9.20;99.90;;;;;;5102739;28;20432;-88
2021/03/15 12:30:43;;;;;;;3.87;3.57;;;;;;;;;;5103464;28;20487;-88
2021/03/15 12:33:09;;;;;;;2.77;2.57;;;9.40;99.90;;;;;;5104039;28;20468;-88
2021/03/15 12:35:42;;;;;;;7.57;3.80;;;8.90;99.90;;;;;;5106136;28;20479;-87
2021/03/15 12:38:09;;;;;;;5.60;3.10;;;;;;;;;;5105196;28;20869;-88
2021/03/15 12:40:39;;;;;;;3.17;2.73;;;8.80;99.90;;;;;;5109293;28;20508;-88
2021/03/15 12:43:06;;;;;;;7.43;3.40;;;;;;;;;;5105819;28;20485;-88
2021/03/15 12:45:33;;;;;;;5.03;3.80;;;9.20;99.90;;;;;;5102089;28;20481;-88
2021/03/15 12:48:00;;;;;;;3.40;3.10;;;;;;;;;;5107311;28;20450;-88
2021/03/15 12:50:26;;;;;;;4.60;3.20;;;9.10;99.90;;;;;;5113656;28;20432;-89
2021/03/15 12:52:53;;;;;;;9.17;3.50;;;;;;;;;;5117133;28;20464;-89
2021/03/15 12:55:20;;;;;;;3.50;3.20;;;;;;;;;;5117024;28;20475;-89
2021/03/15 12:57:46;;;;;;;3.40;3.10;;;;;;;;;;5110332;28;20570;-88
2021/03/15 13:00:15;;;;;;;5.83;3.60;;;8.70;99.90;;;;;;5108688;28;20454;-89
2021/03/15 13:02:42;;;;;;;4.30;3.03;;;8.50;99.90;;;;;;5107443;28;20852;-88
2021/03/15 13:05:09;;;;;;;9.47;4.30;;;;;;;;;;5103233;28;20509;-88
2021/03/15 13:07:36;;;;;;;5.43;4.50;;;;;;;;;;5109806;28;20444;-88
2021/03/15 13:10:07;;;;;;;3.37;3.17;;;;;;;;;;5109257;28;20432;-88
2021/03/15 13:12:34;;;;;;;3.53;3.22;;;;;;;;;;5101112;28;20444;-88
2021/03/15 13:15:04;;;;;;;4.28;3.88;;;8.30;99.90;;;;;;5100538;28;20223;-87
2021/03/15 13:17:30;;;;;;;11.93;4.50;;;8.50;99.90;;;;;;5100482;28;20194;-88
2021/03/15 13:19:57;;;;;;;5.03;3.90;;;8.60;99.90;;;;;;5099800;28;20447;-88
2021/03/15 13:22:24;;;;;;;4.28;3.88;;;;;;;;;;5101349;28;20448;-89
2021/03/15 13:24:51;;;;;;;4.37;3.30;;;;;;;;;;5099698;28;20201;-88
2021/03/15 13:27:17;;;;;;;5.30;3.70;;;8.70;99.90;;;;;;5100163;28;20816;-88
2021/03/15 13:29:44;;;;;;;4.25;3.42;;;8.70;99.90;;;;;;5097531;28;20437;-88
2021/03/15 13:32:10;;;;;;;5.93;3.47;;;8.70;99.90;;;;;;5108267;28;20220;-87